Hemlock, Ohio
Current Conditions -  °F | °C
As of 7:53 PM on Tuesday 21 Oct 2014 (Local Time) from KZZV Reporting Station
Overcast Overcast  
Wind Chill: 42°   Ceiling: 4100
Heat Index: 46°   Visibility: 10mi
Dew Point: 41°   Wind: 8mph
Humidity: 83%   Direction: 330°NNW
Pressure: 30.07"   Gusts: NA
Location:  39.6239°N, 82.0947°W
Report Text: KZZV 212353Z AUTO 33007KT 10SM FEW017 SCT021 OVC041 08/05 A3007 RMK AO2 RAB23E38 SLP184 P0000 60005 T00780050 10106 20072 53019
Loading
Personal Weather Stations






























Interactive Weather Map
Tropical Storm Tracking
New forecast layout! Learn more

10-Day Weather Forecast

Advertisements
Track Severe Weather on mobile